Time;durP1;ratioP1;P1;durP2;ratioP2;P2;SDS_P1;SDS_P2;PMS_P1;PMS_P2;Temp;Humidity;BMP_temperature;BMP_pressure;BME280_temperature;BME280_humidity;BME280_pressure;Samples;Min_cycle;Max_cycle;Signal;HPM_P1;HPM_P2
2023/04/26 00:02:12;;;;;;;10.70;8.35;;;26.40;99.90;;;;;;5012154;28;20036;-47
2023/04/26 00:04:38;;;;;;;13.10;8.93;;;26.40;99.90;;;;;;5011995;28;20038;-46
2023/04/26 00:07:05;;;;;;;10.77;8.13;;;26.40;99.90;;;;;;5012934;28;20053;-46
2023/04/26 00:09:31;;;;;;;12.20;8.95;;;26.30;99.90;;;;;;5007128;28;20519;-47
2023/04/26 00:11:57;;;;;;;10.90;8.30;;;26.40;99.90;;;;;;4995577;28;20021;-46
2023/04/26 00:14:23;;;;;;;10.48;7.88;;;26.30;99.90;;;;;;4995464;28;20081;-48
2023/04/26 00:16:49;;;;;;;11.95;8.18;;;26.30;99.90;;;;;;4995426;28;20023;-48
2023/04/26 00:19:16;;;;;;;10.48;7.95;;;26.40;99.90;;;;;;4998227;28;20031;-48
2023/04/26 00:21:42;;;;;;;13.50;8.88;;;26.30;99.90;;;;;;4996450;28;20042;-48
2023/04/26 00:24:08;;;;;;;11.63;8.05;;;26.30;99.90;;;;;;5011468;28;20114;-48
2023/04/26 00:26:34;;;;;;;11.40;8.65;;;26.30;99.90;;;;;;5015429;28;20537;-47
2023/04/26 00:29:04;;;;;;;10.68;8.48;;;26.30;99.90;;;;;;5015596;28;20490;-49
2023/04/26 00:31:29;;;;;;;10.73;8.07;;;26.30;99.90;;;;;;5015508;28;20022;-47
2023/04/26 00:33:55;;;;;;;10.75;7.78;;;26.30;99.90;;;;;;5015269;28;20014;-47
2023/04/26 00:36:21;;;;;;;12.98;8.50;;;26.30;99.90;;;;;;5015588;28;20097;-48
2023/04/26 00:38:47;;;;;;;14.85;8.85;;;26.30;99.90;;;;;;5015186;28;20018;-47
2023/04/26 00:41:13;;;;;;;11.85;8.43;;;26.30;99.90;;;;;;5015376;28;20026;-51
2023/04/26 00:43:39;;;;;;;11.60;8.60;;;26.30;99.90;;;;;;5015285;28;20130;-47
2023/04/26 00:46:09;;;;;;;10.82;6.95;;;26.30;99.90;;;;;;5015282;28;20498;-47
2023/04/26 00:48:37;;;;;;;11.32;7.43;;;26.30;99.90;;;;;;5015162;28;20053;-47
2023/04/26 00:51:05;;;;;;;11.48;8.38;;;26.20;99.90;;;;;;5015266;28;20028;-47
2023/04/26 00:53:33;;;;;;;11.80;9.32;;;26.20;99.90;;;;;;5013855;28;20022;-47
2023/04/26 00:55:58;;;;;;;11.93;8.32;;;26.20;99.90;;;;;;5015046;28;20061;-47
2023/04/26 00:58:25;;;;;;;13.40;8.02;;;26.20;99.90;;;;;;5013939;28;20501;-47
2023/04/26 01:00:51;;;;;;;10.48;7.82;;;26.30;99.90;;;;;;5031656;23;20054;-60
2023/04/26 01:03:16;;;;;;;12.18;8.75;;;26.20;99.90;;;;;;5014604;28;20104;-60
2023/04/26 01:05:43;;;;;;;10.25;8.07;;;26.20;99.90;;;;;;5014846;28;20058;-58
2023/04/26 01:08:09;;;;;;;13.45;8.02;;;26.20;99.90;;;;;;5014601;28;20566;-58
2023/04/26 01:10:35;;;;;;;11.25;9.02;;;26.20;99.90;;;;;;5014571;28;20084;-57
2023/04/26 01:13:02;;;;;;;11.90;8.82;;;26.20;99.90;;;;;;5014515;28;20032;-58
2023/04/26 01:15:29;;;;;;;10.18;7.90;;;26.20;99.90;;;;;;5014623;28;20022;-58
2023/04/26 01:17:56;;;;;;;11.85;8.98;;;26.20;99.90;;;;;;5014332;28;20479;-58
2023/04/26 01:20:22;;;;;;;10.77;9.02;;;26.20;99.90;;;;;;5014703;28;20018;-57
2023/04/26 01:22:48;;;;;;;10.53;7.90;;;26.20;99.90;;;;;;5014055;28;20037;-57
2023/04/26 01:25:16;;;;;;;12.45;7.93;;;26.20;99.90;;;;;;4996689;28;20038;-58
2023/04/26 01:27:41;;;;;;;11.27;8.95;;;26.20;99.90;;;;;;5014347;28;20018;-59
2023/04/26 01:30:08;;;;;;;9.85;7.95;;;26.20;99.90;;;;;;4996592;28;20038;-58
2023/04/26 01:32:34;;;;;;;11.40;8.37;;;26.10;99.90;;;;;;5014145;28;20080;-60
2023/04/26 01:35:00;;;;;;;10.52;7.78;;;26.10;99.90;;;;;;5014173;28;20267;-60
2023/04/26 01:37:26;;;;;;;10.65;7.63;;;26.10;99.90;;;;;;5014171;28;20026;-58
2023/04/26 01:39:52;;;;;;;10.45;8.50;;;26.10;99.90;;;;;;5014174;28;20038;-59
2023/04/26 01:42:17;;;;;;;12.68;8.38;;;26.10;99.90;;;;;;5013903;28;20033;-58
2023/04/26 01:44:43;;;;;;;12.70;8.32;;;26.10;99.90;;;;;;5013736;28;20037;-58
2023/04/26 01:47:09;;;;;;;10.32;7.32;;;26.20;99.90;;;;;;5013783;28;20037;-59
2023/04/26 01:49:35;;;;;;;11.70;8.07;;;26.10;99.90;;;;;;5014262;28;20021;-59
2023/04/26 01:52:00;;;;;;;10.45;7.72;;;26.10;99.90;;;;;;5013818;28;20368;-60
2023/04/26 01:54:26;;;;;;;10.70;7.43;;;26.10;99.90;;;;;;5013870;28;20424;-60
2023/04/26 01:56:52;;;;;;;9.15;7.57;;;26.10;99.90;;;;;;5013811;28;20057;-60
2023/04/26 01:59:18;;;;;;;11.00;8.35;;;26.10;99.90;;;;;;5014080;28;20109;-60
2023/04/26 02:01:43;;;;;;;9.57;6.90;;;26.10;99.90;;;;;;5013483;28;20124;-59
2023/04/26 02:04:09;;;;;;;10.77;8.32;;;26.10;99.90;;;;;;5013229;28;20430;-59
2023/04/26 02:06:36;;;;;;;9.98;8.13;;;26.10;99.90;;;;;;5013511;28;20383;-59
2023/04/26 02:09:03;;;;;;;10.32;7.97;;;26.10;99.90;;;;;;5013453;28;20489;-59
2023/04/26 02:11:28;;;;;;;10.15;7.93;;;26.10;99.90;;;;;;5013652;28;20026;-61
2023/04/26 02:13:55;;;;;;;11.32;7.28;;;26.10;99.90;;;;;;5013361;28;20044;-59
2023/04/26 02:16:21;;;;;;;9.15;7.07;;;26.10;99.90;;;;;;5013475;28;20088;-58
2023/04/26 02:18:48;;;;;;;9.43;6.70;;;26.10;99.90;;;;;;5013168;28;20028;-59
2023/04/26 02:21:16;;;;;;;10.02;7.20;;;26.10;99.90;;;;;;5013297;28;20141;-60
2023/04/26 02:23:42;;;;;;;10.38;7.15;;;26.10;99.90;;;;;;5012889;28;20034;-60
2023/04/26 02:26:08;;;;;;;9.38;6.78;;;26.00;99.90;;;;;;4995631;28;20037;-60
2023/04/26 02:28:34;;;;;;;10.23;6.78;;;26.00;99.90;;;;;;5012507;28;20368;-60
2023/04/26 02:31:01;;;;;;;10.95;7.95;;;26.10;99.90;;;;;;4995467;28;20233;-58
2023/04/26 02:33:27;;;;;;;11.73;7.45;;;26.00;99.90;;;;;;5013276;28;20018;-58
2023/04/26 02:35:53;;;;;;;10.35;7.72;;;26.10;99.90;;;;;;5012923;28;20065;-58
2023/04/26 02:38:19;;;;;;;8.48;6.85;;;26.00;99.90;;;;;;5012835;28;20074;-58
2023/04/26 02:40:44;;;;;;;10.23;7.10;;;26.00;99.90;;;;;;5012858;28;20171;-58
2023/04/26 02:43:10;;;;;;;9.68;6.57;;;26.00;99.90;;;;;;5012942;28;20029;-60
2023/04/26 02:45:43;;;;;;;10.35;7.40;;;26.00;99.90;;;;;;5012583;28;20502;-59
2023/04/26 02:48:09;;;;;;;8.98;6.40;;;26.00;99.90;;;;;;5012820;28;20033;-59
2023/04/26 02:50:35;;;;;;;8.00;6.00;;;26.00;99.90;;;;;;5012539;28;20022;-59
2023/04/26 02:53:02;;;;;;;8.55;6.80;;;26.00;99.90;;;;;;4995498;28;20054;-59
2023/04/26 02:55:28;;;;;;;8.95;6.88;;;26.00;99.90;;;;;;5012927;28;20460;-60
2023/04/26 02:57:54;;;;;;;8.95;6.72;;;26.00;99.90;;;;;;5012681;28;20034;-60
2023/04/26 03:00:21;;;;;;;7.55;6.00;;;25.90;99.90;;;;;;5020595;23;20050;-48
2023/04/26 03:02:47;;;;;;;8.07;6.70;;;26.00;99.90;;;;;;4991795;28;20045;-47
2023/04/26 03:05:12;;;;;;;8.00;6.22;;;25.90;99.90;;;;;;4992925;28;20034;-47
2023/04/26 03:07:38;;;;;;;8.52;6.70;;;25.90;99.90;;;;;;4993052;28;20365;-46
2023/04/26 03:10:05;;;;;;;8.68;6.50;;;25.90;99.90;;;;;;4992827;28;20472;-47
2023/04/26 03:12:30;;;;;;;10.68;7.72;;;25.90;99.90;;;;;;4993178;28;20014;-47
2023/04/26 03:14:56;;;;;;;9.25;7.60;;;25.90;99.90;;;;;;4992841;28;20037;-46
2023/04/26 03:17:22;;;;;;;11.98;7.07;;;25.90;99.90;;;;;;4992923;28;20026;-46
2023/04/26 03:19:48;;;;;;;9.52;6.90;;;25.90;99.90;;;;;;4992723;28;20113;-46
2023/04/26 03:22:15;;;;;;;10.13;7.32;;;25.90;99.90;;;;;;4992702;28;20495;-47
2023/04/26 03:24:43;;;;;;;11.45;7.15;;;25.90;99.90;;;;;;4992418;28;20038;-46
2023/04/26 03:27:09;;;;;;;9.63;7.47;;;25.90;99.90;;;;;;4992517;28;20023;-47
2023/04/26 03:29:35;;;;;;;11.32;7.20;;;25.90;99.90;;;;;;4992562;28;20029;-47
2023/04/26 03:32:01;;;;;;;10.55;7.63;;;25.80;99.90;;;;;;4992759;28;20146;-47
2023/04/26 03:34:26;;;;;;;9.20;7.28;;;25.80;99.90;;;;;;4990968;28;20023;-48
2023/04/26 03:36:52;;;;;;;10.48;7.18;;;25.80;99.90;;;;;;4992455;28;20105;-47
2023/04/26 03:39:18;;;;;;;10.60;7.50;;;25.80;99.90;;;;;;4991239;28;20369;-47
2023/04/26 03:41:44;;;;;;;8.75;7.03;;;25.80;99.90;;;;;;4991630;28;20036;-50
2023/04/26 03:44:11;;;;;;;11.25;7.43;;;25.80;99.90;;;;;;4992407;28;20040;-47
2023/04/26 03:46:37;;;;;;;10.52;7.28;;;25.80;99.90;;;;;;4992413;28;20029;-47
2023/04/26 03:49:03;;;;;;;11.27;7.18;;;25.80;99.90;;;;;;4992431;28;20022;-48
2023/04/26 03:51:28;;;;;;;14.05;7.70;;;25.80;99.90;;;;;;4992338;28;20053;-48
2023/04/26 03:53:55;;;;;;;8.77;7.20;;;25.80;99.90;;;;;;4992121;28;20097;-47
2023/04/26 03:56:20;;;;;;;9.88;7.50;;;25.80;99.90;;;;;;4992319;28;20026;-47
2023/04/26 03:58:46;;;;;;;11.85;7.65;;;25.80;99.90;;;;;;4992306;28;20480;-48
2023/04/26 04:01:12;;;;;;;8.85;6.82;;;25.70;99.90;;;;;;5009218;22;20470;-50
2023/04/26 04:03:38;;;;;;;9.75;7.35;;;25.70;99.90;;;;;;4992048;28;20369;-46
2023/04/26 04:06:04;;;;;;;10.50;7.43;;;25.80;99.90;;;;;;4991198;28;20022;-46
2023/04/26 04:08:30;;;;;;;10.25;7.15;;;25.70;99.90;;;;;;4992071;28;20116;-46
2023/04/26 04:10:56;;;;;;;9.07;7.25;;;25.70;99.90;;;;;;4992258;28;20438;-46
2023/04/26 04:13:22;;;;;;;9.52;6.78;;;25.70;99.90;;;;;;4992331;28;20019;-47
2023/04/26 04:15:48;;;;;;;12.40;8.25;;;25.70;99.90;;;;;;4992097;28;20491;-47
2023/04/26 04:18:13;;;;;;;11.75;7.78;;;25.70;99.90;;;;;;4992883;28;20027;-47
2023/04/26 04:20:42;;;;;;;8.65;6.55;;;25.70;99.90;;;;;;4992280;28;20033;-46
2023/04/26 04:23:08;;;;;;;9.80;7.47;;;25.70;99.90;;;;;;4992115;28;20461;-47
2023/04/26 04:25:35;;;;;;;9.73;6.93;;;25.70;99.90;;;;;;4992121;28;20038;-47
2023/04/26 04:28:02;;;;;;;9.70;6.97;;;25.70;99.90;;;;;;4992047;28;20041;-47
2023/04/26 04:30:29;;;;;;;9.40;7.28;;;25.70;99.90;;;;;;4992055;28;20030;-47
2023/04/26 04:32:58;;;;;;;8.73;6.68;;;25.70;99.90;;;;;;4991852;28;20038;-47
2023/04/26 04:35:28;;;;;;;11.60;7.47;;;25.70;99.90;;;;;;4992024;28;20041;-47
2023/04/26 04:37:56;;;;;;;10.20;7.63;;;25.60;99.90;;;;;;4978486;28;20025;-48
2023/04/26 04:40:23;;;;;;;9.85;6.95;;;25.70;99.90;;;;;;4990738;28;20476;-47
2023/04/26 04:42:49;;;;;;;8.10;6.63;;;25.60;99.90;;;;;;4990702;28;20022;-47
2023/04/26 04:45:16;;;;;;;8.30;6.35;;;25.60;99.90;;;;;;4991886;28;20358;-47
2023/04/26 04:47:42;;;;;;;12.17;6.40;;;25.60;99.90;;;;;;4991809;28;20014;-47
2023/04/26 04:50:08;;;;;;;11.13;6.68;;;25.60;99.90;;;;;;4991810;28;20030;-47
2023/04/26 04:52:35;;;;;;;6.60;5.90;;;25.60;99.90;;;;;;4993389;28;20088;-47
2023/04/26 04:55:02;;;;;;;7.95;5.93;;;25.60;99.90;;;;;;4995351;28;20026;-47
2023/04/26 04:57:28;;;;;;;10.20;7.35;;;25.60;99.90;;;;;;4995288;28;20060;-47
2023/04/26 04:59:54;;;;;;;9.63;6.57;;;25.60;99.90;;;;;;4994767;28;20114;-47
2023/04/26 05:02:20;;;;;;;8.20;5.95;;;25.60;99.90;;;;;;4994028;28;20527;-47
2023/04/26 05:04:46;;;;;;;8.23;6.07;;;25.60;99.90;;;;;;4993891;28;20054;-47
2023/04/26 05:07:14;;;;;;;10.88;6.20;;;25.50;99.90;;;;;;4993803;28;20026;-47
2023/04/26 05:09:42;;;;;;;;;;;25.50;99.90;;;;;;4994525;28;20018;-45
2023/04/26 05:12:08;;;;;;;10.55;5.65;;;25.50;99.90;;;;;;4994153;28;19906;-46
2023/04/26 05:14:34;;;;;;;7.90;5.95;;;25.50;99.90;;;;;;4981210;28;20026;-46
2023/04/26 05:17:00;;;;;;;9.93;6.40;;;25.50;99.90;;;;;;4993707;28;20026;-45
2023/04/26 05:19:26;;;;;;;8.27;6.00;;;25.50;99.90;;;;;;4993670;28;20514;-46
2023/04/26 05:21:52;;;;;;;12.50;6.20;;;25.50;99.90;;;;;;4993829;28;20110;-46
2023/04/26 05:24:18;;;;;;;9.63;6.35;;;25.50;99.90;;;;;;4993600;28;20026;-46
2023/04/26 05:26:43;;;;;;;8.48;5.82;;;25.50;99.90;;;;;;4993847;28;20042;-47
2023/04/26 05:29:09;;;;;;;11.43;6.10;;;25.50;99.90;;;;;;4993780;28;20508;-46
2023/04/26 05:31:35;;;;;;;9.05;6.07;;;25.50;99.90;;;;;;4993857;28;20491;-46
2023/04/26 05:34:01;;;;;;;8.10;5.70;;;25.50;99.90;;;;;;4993322;28;20050;-46
2023/04/26 05:36:27;;;;;;;8.13;5.65;;;25.50;99.90;;;;;;4993762;28;20062;-48
2023/04/26 05:38:52;;;;;;;8.63;5.85;;;25.40;99.90;;;;;;4993516;28;20114;-47
2023/04/26 05:41:18;;;;;;;7.38;5.88;;;25.50;99.90;;;;;;4993617;28;20030;-46
2023/04/26 05:43:46;;;;;;;9.25;6.30;;;25.40;99.90;;;;;;4993360;28;20042;-46
2023/04/26 05:46:11;;;;;;;8.50;6.03;;;25.40;99.90;;;;;;4993342;28;20022;-46
2023/04/26 05:48:37;;;;;;;8.60;6.13;;;25.40;99.90;;;;;;4975426;28;20396;-47
2023/04/26 05:51:03;;;;;;;9.00;5.90;;;25.40;99.90;;;;;;4993134;28;20065;-47
2023/04/26 05:53:29;;;;;;;7.70;6.07;;;25.50;99.90;;;;;;4992707;28;20492;-47
2023/04/26 05:55:55;;;;;;;9.15;5.70;;;25.40;99.90;;;;;;4992784;28;20048;-49
2023/04/26 05:58:21;;;;;;;7.18;5.80;;;25.50;99.90;;;;;;4993304;28;20044;-47
2023/04/26 06:00:47;;;;;;;10.05;6.03;;;25.40;99.90;;;;;;4940845;28;1537168;-47
2023/04/26 06:03:12;;;;;;;7.40;5.18;;;25.40;99.90;;;;;;4992983;28;20436;-45
2023/04/26 06:05:38;;;;;;;11.68;6.70;;;25.40;99.90;;;;;;4993345;28;20045;-45
2023/04/26 06:08:07;;;;;;;10.73;6.47;;;25.40;99.90;;;;;;4994055;28;20026;-46
2023/04/26 06:10:35;;;;;;;10.07;5.78;;;25.30;99.90;;;;;;4993849;28;20033;-45
2023/04/26 06:13:01;;;;;;;11.23;6.20;;;25.20;99.90;;;;;;4993722;28;20525;-46
2023/04/26 06:15:26;;;;;;;11.75;5.80;;;25.10;99.90;;;;;;4993875;28;20034;-46
2023/04/26 06:17:52;;;;;;;13.00;5.88;;;24.90;99.90;;;;;;4993850;28;20026;-45
2023/04/26 06:20:18;;;;;;;12.68;6.57;;;24.90;99.90;;;;;;4993853;28;20531;-46
2023/04/26 06:22:44;;;;;;;7.68;5.18;;;24.70;99.90;;;;;;4993728;28;20034;-46
2023/04/26 06:25:10;;;;;;;14.05;5.53;;;24.70;99.90;;;;;;4992705;28;20045;-46
2023/04/26 06:27:37;;;;;;;16.60;5.00;;;24.60;99.90;;;;;;4993516;28;20117;-46
2023/04/26 06:30:05;;;;;;;16.92;5.13;;;24.50;99.90;;;;;;4993469;28;20391;-46
2023/04/26 06:32:31;;;;;;;;;;;24.40;99.90;;;;;;4993284;28;20041;-46
2023/04/26 06:34:57;;;;;;;21.67;6.38;;;24.20;99.90;;;;;;4993602;28;20418;-46
2023/04/26 06:37:22;;;;;;;28.52;5.63;;;23.90;99.90;;;;;;4993460;28;20027;-46
2023/04/26 06:39:48;;;;;;;14.43;5.45;;;23.60;99.90;;;;;;4993082;28;20023;-45
2023/04/26 06:42:14;;;;;;;13.40;6.00;;;23.40;99.90;;;;;;4993567;28;20054;-46
2023/04/26 06:44:40;;;;;;;9.60;5.20;;;23.20;99.90;;;;;;4993119;28;20030;-45
2023/04/26 06:47:08;;;;;;;24.65;6.80;;;23.00;99.90;;;;;;4991921;28;20096;-44
2023/04/26 06:49:34;;;;;;;6.60;4.32;;;22.90;99.90;;;;;;4986446;28;20038;-44
2023/04/26 06:52:00;;;;;;;12.45;4.82;;;22.80;99.90;;;;;;4990873;28;20081;-43
2023/04/26 06:54:30;;;;;;;11.68;4.28;;;22.80;99.90;;;;;;4990266;28;20022;-46
2023/04/26 06:56:56;;;;;;;13.20;3.78;;;22.70;99.90;;;;;;4990366;28;20116;-45
2023/04/26 06:59:22;;;;;;;14.10;4.63;;;22.70;99.90;;;;;;4990328;28;20105;-46
2023/04/26 07:01:48;;;;;;;11.35;4.43;;;22.60;99.90;;;;;;4990856;28;20046;-45
2023/04/26 07:04:15;;;;;;;15.13;4.95;;;22.60;99.90;;;;;;4991188;28;20044;-45
2023/04/26 07:06:41;;;;;;;8.57;3.10;;;22.60;99.90;;;;;;4991864;28;20034;-45
2023/04/26 07:09:07;;;;;;;16.98;3.53;;;22.60;99.90;;;;;;4991768;28;20053;-45
2023/04/26 07:11:33;;;;;;;10.68;3.45;;;22.60;99.90;;;;;;4991402;28;20045;-46
2023/04/26 07:13:59;;;;;;;12.35;3.33;;;22.70;99.90;;;;;;4992949;28;20122;-48
2023/04/26 07:16:25;;;;;;;10.98;3.08;;;22.70;99.90;;;;;;4992708;28;20031;-47
2023/04/26 07:18:51;;;;;;;7.68;2.20;;;22.80;99.90;;;;;;4993103;28;20057;-47
2023/04/26 07:21:17;;;;;;;5.45;2.00;;;22.90;99.90;;;;;;4992643;28;20030;-46
2023/04/26 07:23:43;;;;;;;4.85;2.38;;;23.00;99.90;;;;;;4992879;28;20026;-45
2023/04/26 07:26:12;;;;;;;7.50;2.38;;;23.20;99.90;;;;;;4992617;28;20039;-47
2023/04/26 07:28:38;;;;;;;7.43;2.40;;;23.30;99.90;;;;;;4992638;28;20496;-46
2023/04/26 07:31:04;;;;;;;7.70;2.33;;;23.40;99.90;;;;;;4992420;28;20029;-47
2023/04/26 07:33:30;;;;;;;5.45;2.67;;;23.50;99.90;;;;;;4992812;28;20546;-47
2023/04/26 07:36:01;;;;;;;8.35;2.45;;;23.60;99.90;;;;;;4992703;28;20018;-47
2023/04/26 07:38:27;;;;;;;5.43;2.92;;;23.70;99.90;;;;;;4992729;28;20030;-46
2023/04/26 07:40:54;;;;;;;5.65;2.72;;;23.80;99.90;;;;;;4991141;28;20030;-47
2023/04/26 07:43:20;;;;;;;5.80;3.00;;;23.90;99.90;;;;;;4992667;28;20106;-47
2023/04/26 07:45:46;;;;;;;6.60;2.83;;;24.00;99.90;;;;;;4992399;28;20041;-48
2023/04/26 07:48:12;;;;;;;6.22;2.80;;;24.10;99.90;;;;;;4992818;28;20031;-46
2023/04/26 07:50:38;;;;;;;6.22;3.03;;;24.10;99.90;;;;;;4992458;28;20034;-48
2023/04/26 07:53:03;;;;;;;4.93;2.72;;;24.20;99.90;;;;;;4979692;28;20026;-48
2023/04/26 07:55:30;;;;;;;6.40;2.97;;;24.20;99.90;;;;;;4992477;28;20038;-48
2023/04/26 07:57:55;;;;;;;6.07;2.53;;;24.30;99.90;;;;;;4992395;28;20022;-48
2023/04/26 08:00:21;;;;;;;7.93;2.55;;;24.30;99.90;;;;;;4992277;28;20558;-48
2023/04/26 08:02:47;;;;;;;8.07;2.70;;;24.30;99.90;;;;;;4992319;28;20097;-48
2023/04/26 08:05:14;;;;;;;4.63;2.75;;;24.40;99.90;;;;;;4992201;28;20096;-48
2023/04/26 08:07:43;;;;;;;3.87;2.47;;;24.40;99.90;;;;;;4992051;28;20140;-47
2023/04/26 08:10:10;;;;;;;6.45;3.00;;;24.40;99.90;;;;;;4991075;28;20363;-47
2023/04/26 08:12:37;;;;;;;5.45;2.47;;;24.50;99.90;;;;;;4992161;28;20011;-47
2023/04/26 08:15:04;;;;;;;6.18;2.97;;;24.50;99.90;;;;;;4992361;28;20022;-48
2023/04/26 08:17:31;;;;;;;5.47;3.10;;;24.60;99.90;;;;;;4992387;28;20407;-46
2023/04/26 08:19:57;;;;;;;6.80;2.83;;;24.60;99.90;;;;;;4992009;28;20015;-46
2023/04/26 08:22:23;;;;;;;5.63;3.10;;;24.60;99.90;;;;;;4991922;28;20033;-47
2023/04/26 08:24:50;;;;;;;5.65;3.17;;;24.70;99.90;;;;;;4991891;28;20026;-46
2023/04/26 08:27:17;;;;;;;5.18;2.92;;;24.70;99.90;;;;;;4993263;28;20018;-46
2023/04/26 08:29:44;;;;;;;6.63;3.55;;;24.70;99.90;;;;;;4994927;28;20049;-48
2023/04/26 08:32:09;;;;;;;5.45;3.33;;;24.70;99.90;;;;;;4995795;28;20105;-47
2023/04/26 08:34:35;;;;;;;5.70;3.15;;;24.70;99.90;;;;;;4995674;28;20152;-47
2023/04/26 08:37:01;;;;;;;6.43;3.38;;;24.80;99.90;;;;;;4995835;28;20025;-47
2023/04/26 08:39:27;;;;;;;9.88;3.25;;;24.80;99.90;;;;;;4995436;28;20030;-47
2023/04/26 08:41:54;;;;;;;12.88;4.63;;;24.80;99.90;;;;;;4994202;28;20503;-47
2023/04/26 08:44:24;;;;;;;8.07;3.90;;;24.80;99.90;;;;;;4995342;28;20022;-48
2023/04/26 08:47:01;;;;;;;11.95;4.63;;;24.80;99.90;;;;;;4994174;28;20544;-47
2023/04/26 08:49:36;;;;;;;13.05;4.85;;;24.90;99.90;;;;;;4995148;28;20022;-47
2023/04/26 08:52:03;;;;;;;13.40;4.97;;;24.90;99.90;;;;;;4995513;28;20034;-51
2023/04/26 08:54:31;;;;;;;12.75;5.65;;;24.90;99.90;;;;;;4995156;28;20029;-47
2023/04/26 08:56:58;;;;;;;11.85;5.07;;;24.90;99.90;;;;;;4995286;28;20033;-48
2023/04/26 08:59:24;;;;;;;13.70;5.55;;;25.00;99.90;;;;;;4995077;28;20088;-46
2023/04/26 09:01:51;;;;;;;9.23;4.97;;;25.00;99.90;;;;;;4994989;28;20508;-46
2023/04/26 09:04:17;;;;;;;11.75;5.82;;;25.00;99.90;;;;;;4995017;28;20085;-46
2023/04/26 09:06:43;;;;;;;9.90;5.15;;;25.00;99.90;;;;;;4995096;28;20023;-46
2023/04/26 09:09:11;;;;;;;11.95;5.75;;;25.00;99.90;;;;;;4994779;28;20062;-47
2023/04/26 09:12:00;;;;;;;16.40;6.25;;;25.00;99.90;;;;;;4994961;28;20011;-46
2023/04/26 09:14:26;;;;;;;8.73;5.22;;;25.10;99.90;;;;;;4994787;28;20018;-45
2023/04/26 09:16:53;;;;;;;12.80;6.38;;;25.00;99.90;;;;;;4994845;28;20018;-46
2023/04/26 09:19:55;;;;;;;13.60;5.77;;;25.10;99.90;;;;;;4977212;28;20118;-47
2023/04/26 09:22:27;;;;;;;10.20;5.35;;;25.10;99.90;;;;;;4934710;29;20069;-48
2023/04/26 09:24:53;;;;;;;10.75;5.22;;;25.10;99.90;;;;;;4983979;28;20049;-47
2023/04/26 09:27:20;;;;;;;7.22;4.80;;;25.10;99.90;;;;;;4993465;28;20015;-47
2023/04/26 09:30:01;;;;;;;9.68;5.82;;;25.20;99.90;;;;;;4995185;28;20026;-48
2023/04/26 09:32:43;;;;;;;16.63;6.20;;;25.20;99.90;;;;;;4994511;28;20020;-47
2023/04/26 09:35:33;;;;;;;12.07;6.22;;;25.20;99.90;;;;;;4994675;28;20026;-47
2023/04/26 09:38:06;;;;;;;11.57;6.97;;;25.20;99.90;;;;;;4994778;28;20026;-47
2023/04/26 09:40:40;;;;;;;10.05;6.47;;;25.20;99.90;;;;;;4994492;28;20444;-47
2023/04/26 09:43:17;;;;;;;12.60;6.63;;;25.20;99.90;;;;;;4994675;28;20018;-47
2023/04/26 09:45:49;;;;;;;14.45;7.53;;;25.20;99.90;;;;;;4994178;28;20418;-48
2023/04/26 09:48:27;;;;;;;14.00;7.30;;;25.20;99.90;;;;;;4994152;28;20026;-47
2023/04/26 09:50:55;;;;;;;14.75;8.20;;;25.30;99.90;;;;;;4994245;28;20521;-47
2023/04/26 09:53:48;;;;;;;14.35;8.95;;;25.20;99.90;;;;;;4994399;28;20027;-47
2023/04/26 09:56:20;;;;;;;15.23;9.30;;;25.20;99.90;;;;;;4985018;28;20117;-47
2023/04/26 09:58:46;;;;;;;15.38;8.98;;;25.30;99.90;;;;;;4993694;28;20023;-46
2023/04/26 10:01:17;;;;;;;16.33;9.18;;;25.30;99.90;;;;;;4993705;28;20046;-46
2023/04/26 10:03:44;;;;;;;17.13;9.30;;;25.30;99.90;;;;;;4993850;28;20038;-45
2023/04/26 10:06:12;;;;;;;15.43;10.20;;;25.30;99.90;;;;;;4994241;28;20032;-46
2023/04/26 10:08:38;;;;;;;18.85;10.63;;;25.30;99.90;;;;;;4991977;28;20392;-46
2023/04/26 10:11:06;;;;;;;20.38;10.95;;;25.40;99.90;;;;;;4982824;28;20031;-45
2023/04/26 10:13:32;;;;;;;20.20;12.20;;;25.40;99.90;;;;;;4991149;28;20026;-46
2023/04/26 10:16:00;;;;;;;17.00;10.73;;;25.40;99.90;;;;;;4993435;28;20027;-47
2023/04/26 10:18:27;;;;;;;20.50;11.60;;;25.40;99.90;;;;;;4993864;28;20029;-46
2023/04/26 10:20:57;;;;;;;18.38;11.35;;;25.40;99.90;;;;;;4993897;28;20028;-46
2023/04/26 10:23:24;;;;;;;17.35;11.50;;;25.50;99.90;;;;;;5008444;28;20026;-47
2023/04/26 10:25:51;;;;;;;16.35;10.52;;;25.50;99.90;;;;;;4993968;28;20037;-46
2023/04/26 10:28:42;;;;;;;19.17;10.70;;;25.50;99.90;;;;;;4993691;28;20150;-47
2023/04/26 10:31:09;;;;;;;12.48;9.25;;;25.50;99.90;;;;;;4978020;28;20088;-48
2023/04/26 10:33:35;;;;;;;16.70;10.57;;;25.50;99.90;;;;;;4993293;28;20052;-47
2023/04/26 10:36:04;;;;;;;13.82;9.90;;;25.60;99.90;;;;;;4993406;28;20034;-47
2023/04/26 10:38:30;;;;;;;15.05;9.60;;;25.60;99.90;;;;;;4993346;28;20026;-48
2023/04/26 10:41:30;;;;;;;18.30;10.18;;;25.60;99.90;;;;;;4992015;28;20472;-46
2023/04/26 10:43:58;;;;;;;20.02;9.85;;;25.60;99.90;;;;;;4991699;28;20042;-46
2023/04/26 10:46:36;;;;;;;13.75;9.18;;;25.70;99.90;;;;;;4993014;28;20042;-45
2023/04/26 10:49:18;;;;;;;16.15;9.18;;;25.70;99.90;;;;;;4992868;28;20054;-46
2023/04/26 10:52:13;;;;;;;16.55;9.45;;;25.70;99.90;;;;;;4991475;28;20072;-46
2023/04/26 10:54:52;;;;;;;16.23;9.93;;;25.70;99.90;;;;;;4981163;28;20018;-47
2023/04/26 10:57:18;;;;;;;13.05;9.27;;;25.70;99.90;;;;;;4992900;28;20057;-48
2023/04/26 11:00:12;;;;;;;14.33;9.07;;;25.70;99.90;;;;;;4992584;28;20582;-48
2023/04/26 11:03:05;;;;;;;17.83;9.20;;;25.80;99.90;;;;;;4992875;28;20045;-46
2023/04/26 11:05:46;;;;;;;17.35;9.93;;;25.80;99.90;;;;;;4990392;28;20104;-47
2023/04/26 11:08:18;;;;;;;15.32;9.23;;;25.80;99.90;;;;;;4992890;28;20102;-47
2023/04/26 11:10:57;;;;;;;12.98;9.38;;;25.80;99.90;;;;;;4992993;28;20089;-47
2023/04/26 11:13:23;;;;;;;12.93;8.10;;;25.90;99.90;;;;;;4992759;28;20088;-46
2023/04/26 11:15:53;;;;;;;14.57;8.88;;;25.90;99.90;;;;;;4992664;28;20030;-46
2023/04/26 11:18:20;;;;;;;14.15;8.57;;;25.90;99.90;;;;;;4992492;28;20472;-46
2023/04/26 11:20:46;;;;;;;12.65;8.45;;;25.90;99.90;;;;;;4992667;28;20484;-46
2023/04/26 11:23:11;;;;;;;12.80;8.43;;;25.90;99.90;;;;;;4992693;28;20034;-46
2023/04/26 11:25:40;;;;;;;11.70;7.90;;;25.90;99.90;;;;;;4992597;28;20065;-47
2023/04/26 11:28:06;;;;;;;11.57;7.93;;;25.90;99.90;;;;;;4992173;28;20026;-46
2023/04/26 11:30:32;;;;;;;7.70;3.80;;;26.00;99.90;;;;;;4999832;28;20088;-46
2023/04/26 11:32:59;;;;;;;10.65;4.05;;;26.00;99.90;;;;;;4996767;28;20018;-45
2023/04/26 11:35:26;;;;;;;6.80;3.70;;;26.00;99.90;;;;;;4992512;28;20124;-45
2023/04/26 11:37:52;;;;;;;13.35;4.50;;;26.00;99.90;;;;;;4992335;28;20401;-45
2023/04/26 11:40:18;;;;;;;7.40;3.55;;;26.10;99.90;;;;;;4992089;28;20041;-45
2023/04/26 11:42:44;;;;;;;7.97;3.33;;;26.10;99.90;;;;;;4992276;28;20101;-45
2023/04/26 11:45:10;;;;;;;9.75;4.05;;;26.10;99.90;;;;;;4991750;28;20068;-45
2023/04/26 11:47:37;;;;;;;7.65;2.45;;;26.20;99.90;;;;;;4992188;28;20022;-44
2023/04/26 11:50:03;;;;;;;11.15;2.83;;;26.20;99.90;;;;;;4992029;28;20026;-44
2023/04/26 11:52:30;;;;;;;4.68;2.13;;;26.20;99.90;;;;;;4991882;28;20022;-45
2023/04/26 11:55:06;;;;;;;7.07;2.20;;;26.30;99.90;;;;;;4991904;28;20109;-45
2023/04/26 11:57:33;;;;;;;7.55;2.58;;;26.30;99.90;;;;;;4992319;28;20101;-45
2023/04/26 12:00:13;;;;;;;5.18;2.72;;;26.30;99.90;;;;;;4992056;28;20038;-45
2023/04/26 12:02:49;;;;;;;2.30;1.95;;;26.30;99.90;;;;;;4993352;28;20042;-45
2023/04/26 12:05:25;;;;;;;10.00;2.65;;;26.40;99.90;;;;;;4995782;28;20046;-45
2023/04/26 12:07:54;;;;;;;5.57;2.33;;;26.40;99.90;;;;;;4995788;28;20456;-45
2023/04/26 12:10:41;;;;;;;8.23;1.98;;;26.40;99.90;;;;;;4994183;28;20116;-45
2023/04/26 12:13:07;;;;;;;9.30;2.10;;;26.50;99.90;;;;;;4994867;28;20065;-45
2023/04/26 12:15:34;;;;;;;5.63;2.45;;;26.50;99.90;;;;;;4996035;28;20030;-45
2023/04/26 12:18:09;;;;;;;3.42;2.35;;;26.50;99.90;;;;;;4995183;28;20480;-45
2023/04/26 12:20:37;;;;;;;6.40;3.08;;;26.50;99.90;;;;;;4995807;28;20158;-45
2023/04/26 12:23:16;;;;;;;11.35;3.28;;;26.60;99.90;;;;;;4994451;28;20022;-45
2023/04/26 12:25:54;;;;;;;9.00;2.40;;;26.60;99.90;;;;;;4995169;28;20121;-44
2023/04/26 12:28:21;;;;;;;5.70;2.25;;;26.60;99.90;;;;;;4995647;28;20073;-46
2023/04/26 12:30:46;;;;;;;6.70;2.80;;;26.60;99.90;;;;;;4995995;28;20412;-45
2023/04/26 12:33:12;;;;;;;5.95;2.75;;;26.70;99.90;;;;;;4995488;28;20106;-45
2023/04/26 12:35:38;;;;;;;8.98;2.50;;;26.70;99.90;;;;;;4995265;28;20014;-46
2023/04/26 12:38:04;;;;;;;6.00;2.10;;;26.70;99.90;;;;;;4995751;28;20396;-46
2023/04/26 12:40:30;;;;;;;10.50;3.65;;;26.70;99.90;;;;;;4995537;28;20015;-46
2023/04/26 12:42:58;;;;;;;3.78;2.15;;;26.80;99.90;;;;;;4995638;28;20393;-47
2023/04/26 12:45:24;;;;;;;;;;;26.80;99.90;;;;;;4995955;28;20038;-48